Accueil
METAR-TAF:

METAR-TAF

Aéroports :

Station RAF de Northolt

Northolt, Angleterre

latitude: 51-33N, longitude: 000-25W, altitude: 38 m

Observation

Le bulletin a été fait il y a 1 heure et 10 minutes, à 02:50 UTC
Vent 5 kt de ouest
Température 12°C
Humidité 88%
Pression 1029 hPa
Visibilité 10 km ou plus

METAR: EGWU 230250Z AUTO 26005KT 9999 // NCD 12/10 Q1029

Heure: 05:00 (04:00 UTC)

Prévision

Le bulletin a été fait il y a 8 heures et 8 minutes, à 19:52 UTC
Prévision valable du 22 à 21 UTC au 23 à 15 UTC
Vent 5 kt de direction variable
Visibilité 10 km ou plus
pas de nuages en-dessous de 1500 mètres et pas de cumulonimbus.

TAF: EGWU 221952Z 2221/2315 VRB05KT CAVOK

Observations et prévisions météorologiques de plus de 4000 aéroports (messages METAR et TAF).

Les stations disponibles sont représentées par des disques jaunes et rouges sur la carte.

Passer la souris dessus pour voir le nom de la station.

Cliquer dessus pour voir les observations et prévisions météorologiques.

Pour changer de carte: cliquez sur les boutons verts avec une croix noire pour zoomer, sur le bouton vert avec un tiret pour effectuer un zoom arrière, ou sur les flèches vertes pour les cartes adjacentes.


METAR-TAF: